RJNH(METAR)
05/30 17:00
METAR RJNH 300800Z 18006KT 130V210 9999 SCT030 BKN250 24/16 Q1019
RMK 3CU030 A3011=
戻る
トップページへ戻る
IMOC Co,.Ltd.